Time;durP1;ratioP1;P1;durP2;ratioP2;P2;SDS_P1;SDS_P2;PMS_P1;PMS_P2;Temp;Humidity;BMP_temperature;BMP_pressure;BME280_temperature;BME280_humidity;BME280_pressure;Samples;Min_cycle;Max_cycle;Signal;HPM_P1;HPM_P2
2022/09/13 00:00:02;;;;;;;3.27;3.07;;;28.10;47.00;;;;;;4979339;28;20469;-81
2022/09/13 00:02:40;;;;;;;4.07;3.67;;;28.10;46.90;;;;;;4979142;28;20461;-81
2022/09/13 00:05:26;;;;;;;3.60;3.30;;;28.00;46.90;;;;;;4976920;28;20437;-80
2022/09/13 00:08:02;;;;;;;4.03;3.73;;;28.00;47.10;;;;;;4969914;28;20449;-79
2022/09/13 00:10:41;;;;;;;3.90;3.60;;;28.00;47.10;;;;;;4959260;28;20533;-80
2022/09/13 00:13:10;;;;;;;3.13;3.03;;;28.00;47.20;;;;;;4955114;28;20428;-79
2022/09/13 00:15:43;;;;;;;3.47;3.27;;;28.00;47.20;;;;;;4960557;28;20492;-79
2022/09/13 00:18:11;;;;;;;4.13;3.70;;;28.00;47.20;;;;;;4967902;28;20451;-80
2022/09/13 00:20:41;;;;;;;3.63;3.33;;;27.90;47.00;;;;;;4958535;28;20482;-79
2022/09/13 00:23:09;;;;;;;3.17;3.07;;;27.90;47.30;;;;;;4971052;28;20418;-79
2022/09/13 00:25:38;;;;;;;3.53;3.27;;;27.90;47.40;;;;;;4976225;28;20446;-79
2022/09/13 00:28:07;;;;;;;3.80;3.50;;;27.90;47.30;;;;;;4972614;28;20509;-79
2022/09/13 00:30:41;;;;;;;3.13;3.03;;;27.90;47.30;;;;;;4961030;28;20536;-81
2022/09/13 00:33:12;;;;;;;3.90;3.70;;;27.80;47.30;;;;;;4977972;28;20441;-80
2022/09/13 00:35:42;;;;;;;5.03;3.50;;;27.80;47.40;;;;;;4954599;28;20548;-80
2022/09/13 00:38:10;;;;;;;4.83;3.77;;;27.80;47.50;;;;;;4973312;28;20934;-80
2022/09/13 00:40:39;;;;;;;4.13;3.73;;;27.80;47.40;;;;;;4978561;28;20489;-79
2022/09/13 00:43:12;;;;;;;5.43;3.60;;;27.80;47.50;;;;;;4966506;28;20477;-79
2022/09/13 00:45:40;;;;;;;3.63;3.33;;;27.80;47.50;;;;;;4960181;28;20513;-80
2022/09/13 00:48:10;;;;;;;3.53;3.33;;;27.80;47.70;;;;;;4972687;28;20520;-79
2022/09/13 00:50:39;;;;;;;3.50;3.30;;;27.80;47.70;;;;;;4982237;28;20471;-80
2022/09/13 00:53:09;;;;;;;3.47;3.27;;;27.80;47.60;;;;;;4986982;28;20454;-80
2022/09/13 00:55:42;;;;;;;4.73;3.30;;;27.80;47.60;;;;;;4976785;28;20446;-78
2022/09/13 00:58:14;;;;;;;3.47;3.17;;;27.80;47.70;;;;;;4975697;28;20440;-79
2022/09/13 01:00:44;;;;;;;4.03;3.30;;;27.80;47.70;;;;;;4970252;28;20545;-80
2022/09/13 01:03:18;;;;;;;8.97;3.70;;;27.80;47.80;;;;;;4961729;28;20451;-81
2022/09/13 01:05:52;;;;;;;6.27;3.13;;;27.70;47.70;;;;;;4964249;28;20431;-81
2022/09/13 01:08:31;;;;;;;3.40;3.20;;;27.70;47.60;;;;;;4980438;28;20424;-81
2022/09/13 01:11:10;;;;;;;3.40;3.20;;;27.70;47.70;;;;;;4973713;28;20500;-80
2022/09/13 01:13:39;;;;;;;3.37;3.17;;;27.70;47.80;;;;;;4962198;28;20450;-81
2022/09/13 01:16:07;;;;;;;5.63;3.93;;;27.70;47.80;;;;;;4961784;28;20444;-81
2022/09/13 01:18:38;;;;;;;3.40;3.20;;;27.70;47.70;;;;;;4959415;28;20442;-80
2022/09/13 01:21:32;;;;;;;3.20;3.00;;;27.70;47.60;;;;;;4962658;28;20457;-79
2022/09/13 01:24:46;;;;;;;5.47;3.47;;;27.70;47.40;;;;;;4947546;29;20857;-79
2022/09/13 01:27:55;;;;;;;4.80;3.83;;;27.70;47.50;;;;;;4916869;28;20424;-79
2022/09/13 01:30:34;;;;;;;3.83;3.60;;;27.70;47.40;;;;;;4910372;29;20463;-79
2022/09/13 01:33:18;;;;;;;3.43;3.13;;;27.70;47.60;;;;;;4966656;28;20529;-79
2022/09/13 01:36:01;;;;;;;6.10;3.70;;;27.60;47.60;;;;;;4961447;28;20488;-79
2022/09/13 01:38:46;;;;;;;3.33;3.13;;;27.70;47.60;;;;;;4961539;28;20449;-80
2022/09/13 01:41:27;;;;;;;3.67;3.47;;;27.70;47.60;;;;;;4962213;28;20416;-79
2022/09/13 01:44:08;;;;;;;6.40;3.40;;;27.60;47.40;;;;;;4964195;28;20446;-79
2022/09/13 01:46:55;;;;;;;3.67;3.43;;;27.60;47.60;;;;;;4972638;28;20479;-80
2022/09/13 01:49:31;;;;;;;4.90;3.10;;;27.60;47.60;;;;;;4961076;28;20471;-81
2022/09/13 01:52:07;;;;;;;6.70;3.63;;;27.60;47.60;;;;;;4960457;29;20533;-81
2022/09/13 01:54:43;;;;;;;3.70;3.40;;;27.60;47.50;;;;;;4960785;28;20949;-81
2022/09/13 01:57:21;;;;;;;3.60;3.30;;;27.60;47.60;;;;;;4960869;28;20460;-81
2022/09/13 01:59:56;;;;;;;3.60;3.30;;;27.60;47.60;;;;;;4977629;28;20474;-80
2022/09/13 02:02:30;;;;;;;3.63;3.37;;;27.60;47.60;;;;;;4972716;28;20509;-81
2022/09/13 02:05:13;;;;;;;10.00;3.40;;;27.60;47.50;;;;;;4959415;28;20433;-81
2022/09/13 02:08:09;;;;;;;3.83;3.53;;;27.60;47.60;;;;;;4960051;28;20529;-82
2022/09/13 02:10:45;;;;;;;3.60;3.40;;;27.60;47.60;;;;;;4959984;28;20503;-81
2022/09/13 02:13:25;;;;;;;3.30;3.10;;;27.60;47.70;;;;;;4959636;29;20459;-81
2022/09/13 02:16:12;;;;;;;3.60;3.40;;;27.60;47.60;;;;;;4959612;28;20469;-81
2022/09/13 02:18:52;;;;;;;3.20;3.00;;;27.60;47.60;;;;;;4959831;28;20504;-81
2022/09/13 02:21:29;;;;;;;3.17;2.97;;;27.60;47.60;;;;;;4961521;28;20472;-80
2022/09/13 02:24:06;;;;;;;3.33;3.03;;;27.50;47.70;;;;;;4961366;28;20516;-80
2022/09/13 02:26:45;;;;;;;3.20;3.00;;;27.50;47.60;;;;;;4961606;28;20455;-81
2022/09/13 02:29:27;;;;;;;3.87;2.93;;;27.50;47.60;;;;;;4960515;28;20536;-81
2022/09/13 02:32:08;;;;;;;3.43;3.10;;;27.50;47.60;;;;;;4962210;28;20440;-81
2022/09/13 02:34:52;;;;;;;3.17;3.07;;;27.50;47.70;;;;;;4978489;28;20538;-83
2022/09/13 02:37:32;;;;;;;3.50;3.30;;;27.50;47.60;;;;;;4954293;29;20424;-82
2022/09/13 02:40:22;;;;;;;6.80;3.70;;;27.50;47.70;;;;;;4941385;29;20488;-82
2022/09/13 02:42:58;;;;;;;4.07;3.43;;;27.50;47.70;;;;;;4941356;29;20434;-83
2022/09/13 02:45:48;;;;;;;3.30;3.10;;;27.50;47.80;;;;;;4940977;29;20433;-83
2022/09/13 02:48:40;;;;;;;3.70;3.50;;;27.50;47.70;;;;;;4946171;28;20477;-83
2022/09/13 02:51:19;;;;;;;3.57;3.27;;;27.50;47.90;;;;;;4964517;28;20417;-83
2022/09/13 02:53:58;;;;;;;4.63;3.83;;;27.50;47.90;;;;;;4979655;28;20424;-83
2022/09/13 02:56:32;;;;;;;3.30;3.10;;;27.50;47.80;;;;;;4979101;28;20448;-82
2022/09/13 02:59:08;;;;;;;3.13;3.00;;;27.50;47.90;;;;;;4978351;28;20460;-82
2022/09/13 03:01:46;;;;;;;3.67;3.40;;;27.50;48.00;;;;;;4976142;28;20444;-83
2022/09/13 03:04:25;;;;;;;4.07;3.87;;;27.50;48.00;;;;;;4958410;28;20437;-82
2022/09/13 03:07:18;;;;;;;5.13;3.70;;;27.40;47.80;;;;;;4960809;28;20447;-82
2022/09/13 03:09:57;;;;;;;3.20;3.10;;;27.50;47.90;;;;;;4978402;28;20429;-81
2022/09/13 03:13:01;;;;;;;3.60;3.30;;;27.40;47.80;;;;;;4979156;28;20416;-82
2022/09/13 03:15:55;;;;;;;;;;;;;;;;;;;;;
2022/09/13 03:18:37;;;;;;;3.70;3.50;;;27.40;47.90;;;;;;4954727;28;20470;-82
2022/09/13 03:21:10;;;;;;;3.20;3.00;;;27.40;47.90;;;;;;4966519;28;20523;-83
2022/09/13 03:23:51;;;;;;;3.30;3.10;;;27.40;47.90;;;;;;4973909;28;20516;-82
2022/09/13 03:26:51;;;;;;;3.50;3.20;;;27.40;48.00;;;;;;4944964;29;20478;-82
2022/09/13 03:29:36;;;;;;;3.30;3.07;;;27.40;48.00;;;;;;4941101;29;20442;-82
2022/09/13 03:32:23;;;;;;;4.17;3.60;;;27.40;47.90;;;;;;4951984;29;20501;-82
2022/09/13 03:35:08;;;;;;;4.03;3.30;;;27.40;48.00;;;;;;4959984;28;20426;-83
2022/09/13 03:38:03;;;;;;;3.40;3.20;;;27.40;47.90;;;;;;4960004;28;20457;-82
2022/09/13 03:40:50;;;;;;;3.37;3.07;;;27.40;48.10;;;;;;4970982;28;20449;-82
2022/09/13 03:43:24;;;;;;;3.40;3.13;;;27.40;48.00;;;;;;4947210;29;20503;-79
2022/09/13 03:45:58;;;;;;;3.57;3.27;;;27.40;48.10;;;;;;4940265;29;20452;-81
2022/09/13 03:48:47;;;;;;;2.93;2.83;;;27.40;48.00;;;;;;4939890;29;20922;-82
2022/09/13 03:51:29;;;;;;;3.20;3.10;;;27.40;48.00;;;;;;4940462;29;20442;-82
2022/09/13 03:54:17;;;;;;;3.57;3.30;;;27.40;48.00;;;;;;4940085;29;20418;-82
2022/09/13 03:57:21;;;;;;;3.00;2.90;;;27.40;48.00;;;;;;4973528;28;20511;-81
2022/09/13 04:00:17;;;;;;;3.40;3.20;;;27.40;47.90;;;;;;4967234;28;20476;-80
2022/09/13 04:03:01;;;;;;;3.47;3.17;;;27.40;48.00;;;;;;4959581;28;20429;-82
2022/09/13 04:05:54;;;;;;;3.40;3.10;;;27.40;48.20;;;;;;4955396;28;20494;-82
2022/09/13 04:08:38;;;;;;;3.60;3.40;;;27.40;48.20;;;;;;4959296;28;20421;-79
2022/09/13 04:11:20;;;;;;;3.37;3.17;;;27.40;48.20;;;;;;4960453;28;20421;-82
2022/09/13 04:14:25;;;;;;;2.97;2.87;;;27.30;48.10;;;;;;4981183;28;20500;-82
2022/09/13 04:17:12;;;;;;;3.47;3.20;;;27.40;48.10;;;;;;4982232;28;20424;-80
2022/09/13 04:19:45;;;;;;;3.27;3.07;;;27.40;48.10;;;;;;4962133;28;20446;-81
2022/09/13 04:22:30;;;;;;;3.47;3.17;;;27.30;48.10;;;;;;4961955;28;20452;-82
2022/09/13 04:25:10;;;;;;;3.23;3.03;;;27.40;48.20;;;;;;4943699;29;20426;-81
2022/09/13 04:28:03;;;;;;;3.00;2.90;;;27.40;48.20;;;;;;4958110;28;20467;-80
2022/09/13 04:33:31;;;;;;;3.20;3.00;;;27.30;48.20;;;;;;4942244;29;20493;-80
2022/09/13 04:36:06;;;;;;;3.50;3.20;;;27.30;48.40;;;;;;4943329;29;20474;-80
2022/09/13 04:38:48;;;;;;;3.27;2.97;;;27.30;48.30;;;;;;4943342;29;20473;-82
2022/09/13 04:41:47;;;;;;;3.27;3.00;;;27.30;48.20;;;;;;4956894;29;20445;-83
2022/09/13 04:44:32;;;;;;;3.03;2.83;;;27.30;48.20;;;;;;4960894;28;20425;-82
2022/09/13 04:47:15;;;;;;;3.23;3.13;;;27.30;48.10;;;;;;4954399;29;20520;-83
2022/09/13 04:50:13;;;;;;;2.97;2.87;;;27.30;48.40;;;;;;4961599;28;20453;-82
2022/09/13 04:52:48;;;;;;;3.23;3.13;;;27.30;48.30;;;;;;4961804;28;20455;-82
2022/09/13 04:55:27;;;;;;;3.77;3.47;;;27.30;48.40;;;;;;4963605;28;20454;-82
2022/09/13 04:58:04;;;;;;;6.73;3.40;;;27.30;48.20;;;;;;4961824;28;20461;-83
2022/09/13 05:00:39;;;;;;;3.13;2.93;;;27.30;48.40;;;;;;4959833;28;20453;-83
2022/09/13 05:03:13;;;;;;;2.90;2.77;;;27.30;48.40;;;;;;4967811;28;20421;-82
2022/09/13 05:05:45;;;;;;;3.17;2.97;;;27.30;48.30;;;;;;4981656;28;20428;-83
2022/09/13 05:08:22;;;;;;;3.27;3.10;;;27.30;48.50;;;;;;4961895;28;20493;-82
2022/09/13 05:10:51;;;;;;;4.27;3.03;;;27.30;48.40;;;;;;4962484;28;20476;-83
2022/09/13 05:13:21;;;;;;;2.50;2.40;;;27.30;48.50;;;;;;4956950;28;20490;-83
2022/09/13 05:15:49;;;;;;;3.57;3.30;;;27.30;48.50;;;;;;4962017;28;20486;-82
2022/09/13 05:18:20;;;;;;;2.93;2.83;;;27.30;48.40;;;;;;4980838;28;20420;-82
2022/09/13 05:20:55;;;;;;;2.80;2.70;;;27.30;48.40;;;;;;4981110;28;20445;-83
2022/09/13 05:23:25;;;;;;;2.73;2.63;;;27.30;48.40;;;;;;4980612;28;20461;-83
2022/09/13 05:25:58;;;;;;;3.30;3.20;;;27.30;48.40;;;;;;4981598;28;20428;-83
2022/09/13 05:28:32;;;;;;;2.90;2.80;;;27.20;48.50;;;;;;4981183;28;20444;-83
2022/09/13 05:31:09;;;;;;;3.17;3.07;;;27.30;48.60;;;;;;4974309;28;20441;-82
2022/09/13 05:33:48;;;;;;;3.27;3.13;;;27.30;48.60;;;;;;4978319;28;20420;-83
2022/09/13 05:36:26;;;;;;;2.90;2.80;;;27.30;48.60;;;;;;4965408;28;20569;-83
2022/09/13 05:39:04;;;;;;;3.13;3.00;;;27.20;48.50;;;;;;4961523;28;20444;-81
2022/09/13 05:42:00;;;;;;;7.17;3.63;;;27.30;48.60;;;;;;4961217;28;20449;-82
2022/09/13 05:44:38;;;;;;;4.30;3.10;;;27.30;48.50;;;;;;4960739;28;20429;-81
2022/09/13 05:47:17;;;;;;;3.40;3.10;;;27.30;48.60;;;;;;4953715;28;20436;-82
2022/09/13 05:50:04;;;;;;;2.83;2.63;;;27.30;48.60;;;;;;4968172;28;20490;-82
2022/09/13 05:52:54;;;;;;;2.77;2.67;;;27.20;48.50;;;;;;4966004;28;20425;-81
2022/09/13 05:55:26;;;;;;;2.90;2.80;;;27.30;48.80;;;;;;4975444;28;20481;-83
2022/09/13 05:58:02;;;;;;;3.13;3.03;;;27.30;48.80;;;;;;4975683;28;20482;-83
2022/09/13 06:00:42;;;;;;;3.00;2.90;;;27.20;48.70;;;;;;4970378;28;20453;-83
2022/09/13 06:03:26;;;;;;;3.00;2.90;;;27.20;48.60;;;;;;4960037;28;20467;-82
2022/09/13 06:06:03;;;;;;;3.10;2.90;;;27.30;48.80;;;;;;4979846;28;20413;-82
2022/09/13 06:08:43;;;;;;;2.80;2.70;;;27.30;48.70;;;;;;4977941;28;20450;-82
2022/09/13 06:11:19;;;;;;;3.10;2.90;;;27.20;48.60;;;;;;4954645;29;20447;-82
2022/09/13 06:13:55;;;;;;;2.90;2.80;;;27.20;48.70;;;;;;4960630;28;20481;-83
2022/09/13 06:16:42;;;;;;;2.70;2.60;;;27.30;48.60;;;;;;4959796;28;20501;-81
2022/09/13 06:19:19;;;;;;;2.73;2.63;;;27.20;48.70;;;;;;4960215;28;20457;-82
2022/09/13 06:21:53;;;;;;;3.40;3.20;;;27.20;48.70;;;;;;4977942;28;20479;-83
2022/09/13 06:24:58;;;;;;;2.83;2.73;;;27.30;48.70;;;;;;4979147;28;20401;-82
2022/09/13 06:27:38;;;;;;;2.60;2.50;;;27.20;48.70;;;;;;4980901;28;20529;-82
2022/09/13 06:30:14;;;;;;;2.70;2.50;;;27.30;48.80;;;;;;4979537;28;20472;-82
2022/09/13 06:32:50;;;;;;;3.17;2.97;;;27.30;48.80;;;;;;4961549;28;20436;-82
2022/09/13 06:35:28;;;;;;;2.77;2.67;;;27.30;48.60;;;;;;4953719;29;20439;-82
2022/09/13 06:38:02;;;;;;;2.67;2.57;;;27.30;48.70;;;;;;4959973;28;20492;-82
2022/09/13 06:40:42;;;;;;;3.37;3.13;;;27.30;48.80;;;;;;4971379;28;20444;-83
2022/09/13 06:43:25;;;;;;;4.27;3.07;;;27.30;48.80;;;;;;4958997;28;20485;-82
2022/09/13 06:46:06;;;;;;;2.70;2.50;;;27.30;48.70;;;;;;4959418;28;20505;-82
2022/09/13 06:48:47;;;;;;;3.40;3.20;;;27.30;48.80;;;;;;4959947;28;20494;-82
2022/09/13 06:51:38;;;;;;;2.90;2.80;;;27.30;48.70;;;;;;4960213;28;20437;-82
2022/09/13 06:54:20;;;;;;;2.70;2.60;;;27.30;48.80;;;;;;4963047;28;20458;-83
2022/09/13 06:57:05;;;;;;;2.80;2.60;;;27.30;48.70;;;;;;4978367;28;20421;-83
2022/09/13 06:59:37;;;;;;;3.00;2.80;;;27.30;48.80;;;;;;4979463;28;20452;-81
2022/09/13 07:02:20;;;;;;;3.00;2.90;;;27.30;48.60;;;;;;4963429;28;20452;-82
2022/09/13 07:05:03;;;;;;;2.87;2.77;;;27.30;48.80;;;;;;4959683;28;20482;-83
2022/09/13 07:07:48;;;;;;;2.73;2.63;;;27.40;48.80;;;;;;4959680;28;20458;-80
2022/09/13 07:10:48;;;;;;;2.63;2.53;;;27.40;48.80;;;;;;4958907;28;20532;-82
2022/09/13 07:13:31;;;;;;;2.60;2.50;;;27.40;48.60;;;;;;4966130;28;20421;-82
2022/09/13 07:16:25;;;;;;;3.57;3.37;;;27.40;48.70;;;;;;4979451;28;20427;-82
2022/09/13 07:22:00;;;;;;;2.70;2.60;;;27.50;48.60;;;;;;4976285;28;20432;-82
2022/09/13 07:24:49;;;;;;;2.73;2.63;;;27.50;48.60;;;;;;4955019;29;20441;-82
2022/09/13 07:27:29;;;;;;;2.90;2.70;;;27.40;48.50;;;;;;4946339;29;20441;-83
2022/09/13 07:30:20;;;;;;;2.90;2.80;;;27.40;48.60;;;;;;4963889;28;20449;-82
2022/09/13 07:33:04;;;;;;;2.97;2.80;;;27.40;48.60;;;;;;4957829;28;20443;-82
2022/09/13 07:35:52;;;;;;;3.00;2.87;;;27.40;48.60;;;;;;4958684;28;20429;-81
2022/09/13 07:38:41;;;;;;;2.43;2.33;;;27.40;48.70;;;;;;4958875;28;20436;-83
2022/09/13 07:41:16;;;;;;;2.80;2.70;;;27.40;48.80;;;;;;4958549;28;20528;-82
2022/09/13 07:43:57;;;;;;;2.60;2.50;;;27.40;48.70;;;;;;4958356;28;20460;-81
2022/09/13 07:46:43;;;;;;;3.00;2.90;;;27.40;48.80;;;;;;4976874;28;20442;-82
2022/09/13 07:49:26;;;;;;;2.87;2.70;;;27.40;48.80;;;;;;4980439;28;20515;-82
2022/09/13 07:52:10;;;;;;;2.70;2.60;;;27.40;48.90;;;;;;4964016;28;20432;-83
2022/09/13 07:54:49;;;;;;;2.77;2.67;;;27.40;48.80;;;;;;4963434;28;20493;-83
2022/09/13 07:57:29;;;;;;;2.60;2.50;;;27.40;48.90;;;;;;4963070;28;20458;-80
2022/09/13 08:00:13;;;;;;;2.30;2.20;;;27.40;48.80;;;;;;4961256;28;20457;-83
2022/09/13 08:03:06;;;;;;;3.20;2.97;;;27.40;48.80;;;;;;4979726;28;20540;-81
2022/09/13 08:05:54;;;;;;;3.07;2.87;;;27.40;48.90;;;;;;4980732;28;20413;-83
2022/09/13 08:08:38;;;;;;;2.70;2.60;;;27.40;48.80;;;;;;4982525;28;20438;-83
2022/09/13 08:11:22;;;;;;;2.60;2.50;;;27.40;48.70;;;;;;4981685;28;20504;-83
2022/09/13 08:14:04;;;;;;;2.70;2.60;;;27.50;48.90;;;;;;4982043;28;20412;-82
2022/09/13 08:16:42;;;;;;;2.60;2.40;;;27.50;48.60;;;;;;4969687;28;20460;-83
2022/09/13 08:19:21;;;;;;;2.60;2.50;;;27.50;48.70;;;;;;4983392;28;20461;-83
2022/09/13 08:22:11;;;;;;;2.60;2.50;;;27.50;48.60;;;;;;4981873;28;20470;-83
2022/09/13 08:24:44;;;;;;;2.77;2.67;;;27.60;48.70;;;;;;4981241;28;20443;-82
2022/09/13 08:27:15;;;;;;;2.40;2.30;;;27.60;48.40;;;;;;4983607;28;20466;-81
2022/09/13 08:30:06;;;;;;;2.30;2.20;;;27.70;48.40;;;;;;4976638;28;20523;-82
2022/09/13 08:32:57;;;;;;;2.37;2.27;;;27.70;48.20;;;;;;4979181;28;20437;-80
2022/09/13 08:35:34;;;;;;;2.27;2.17;;;27.80;48.20;;;;;;4982009;28;20456;-82
2022/09/13 08:38:07;;;;;;;2.60;2.40;;;27.80;48.20;;;;;;4981691;28;20491;-83
2022/09/13 08:40:48;;;;;;;2.50;2.40;;;27.80;48.20;;;;;;4981213;28;20521;-81
2022/09/13 08:43:22;;;;;;;2.40;2.30;;;27.90;48.20;;;;;;4981566;28;21026;-81
2022/09/13 08:45:59;;;;;;;2.73;2.63;;;27.90;48.10;;;;;;4981080;28;20449;-80
2022/09/13 08:48:39;;;;;;;2.30;2.20;;;27.90;48.10;;;;;;4968114;28;20476;-82
2022/09/13 08:51:34;;;;;;;2.47;2.37;;;27.90;48.00;;;;;;4967098;28;20431;-82
2022/09/13 08:54:23;;;;;;;2.23;2.13;;;28.00;48.10;;;;;;4974478;28;20425;-81
2022/09/13 08:57:01;;;;;;;2.30;2.20;;;27.90;48.00;;;;;;4961142;28;20421;-82
2022/09/13 08:59:50;;;;;;;2.47;2.37;;;27.90;47.90;;;;;;4960900;28;20478;-81
2022/09/13 09:02:46;;;;;;;2.70;2.60;;;27.90;47.90;;;;;;4961477;28;20422;-82
2022/09/13 09:09:05;;;;;;;2.37;2.27;;;27.90;48.00;;;;;;4981144;28;20437;-81
2022/09/13 09:11:45;;;;;;;2.40;2.17;;;28.10;48.00;;;;;;4981765;28;20423;-82
2022/09/13 09:14:36;;;;;;;2.30;2.10;;;28.10;47.90;;;;;;4980559;28;20480;-81
2022/09/13 09:17:32;;;;;;;2.57;2.37;;;28.30;47.90;;;;;;4979589;28;20432;-81
2022/09/13 09:23:34;;;;;;;2.40;2.30;;;28.80;47.20;;;;;;4972911;28;20573;-81
2022/09/13 09:26:15;;;;;;;2.33;2.23;;;28.90;46.70;;;;;;4980363;28;20435;-80
2022/09/13 09:28:43;;;;;;;1.87;1.87;;;29.10;46.40;;;;;;4959763;28;20452;-81
2022/09/13 09:31:15;;;;;;;2.20;2.10;;;29.20;46.30;;;;;;4961730;28;20454;-82
2022/09/13 09:33:55;;;;;;;2.20;2.10;;;29.20;45.80;;;;;;4961935;29;20477;-81
2022/09/13 09:36:42;;;;;;;1.97;1.87;;;29.20;45.70;;;;;;4961540;28;20426;-79
2022/09/13 09:39:50;;;;;;;1.90;1.90;;;29.20;45.90;;;;;;4954976;28;20512;-80
2022/09/13 09:42:29;;;;;;;1.77;1.67;;;29.30;45.70;;;;;;4957474;29;20443;-80
2022/09/13 09:45:28;;;;;;;1.80;1.70;;;29.30;45.80;;;;;;4961742;28;20449;-80
2022/09/13 09:48:09;;;;;;;1.60;1.50;;;29.50;45.50;;;;;;4959260;29;20446;-82
2022/09/13 09:50:50;;;;;;;1.90;1.80;;;29.60;45.20;;;;;;4959683;29;20513;-81
2022/09/13 09:53:25;;;;;;;2.10;2.00;;;29.80;44.90;;;;;;4963885;28;20481;-81
2022/09/13 09:56:08;;;;;;;1.73;1.67;;;29.90;44.80;;;;;;4961750;28;20457;-80
2022/09/13 09:58:49;;;;;;;1.83;1.77;;;29.90;44.50;;;;;;4959586;28;20522;-82
2022/09/13 10:01:41;;;;;;;2.00;1.90;;;30.00;44.20;;;;;;4959633;28;20458;-82
2022/09/13 10:04:23;;;;;;;1.67;1.57;;;30.00;43.90;;;;;;4953022;29;20525;-82
2022/09/13 10:07:12;;;;;;;1.70;1.60;;;29.90;44.40;;;;;;4959963;28;20467;-81
2022/09/13 10:10:04;;;;;;;1.60;1.60;;;29.70;44.50;;;;;;4976346;28;20469;-80
2022/09/13 10:12:39;;;;;;;1.80;1.70;;;29.80;44.50;;;;;;4983450;28;20493;-79
2022/09/13 10:15:18;;;;;;;1.80;1.70;;;29.90;44.40;;;;;;4961857;29;20425;-80
2022/09/13 10:18:09;;;;;;;1.53;1.50;;;30.00;44.10;;;;;;4963343;28;20453;-81
2022/09/13 10:21:04;;;;;;;1.67;1.57;;;30.20;43.90;;;;;;4960830;28;20440;-82
2022/09/13 10:23:33;;;;;;;1.60;1.60;;;30.30;43.70;;;;;;4960951;28;20482;-81
2022/09/13 10:26:07;;;;;;;1.80;1.70;;;30.30;43.40;;;;;;4956133;28;20487;-81
2022/09/13 10:28:46;;;;;;;1.70;1.60;;;30.40;43.30;;;;;;4967871;28;20466;-82
2022/09/13 10:31:23;;;;;;;1.87;1.53;;;30.50;43.30;;;;;;4976543;28;20447;-81
2022/09/13 10:34:06;;;;;;;1.40;1.40;;;30.50;43.00;;;;;;4961464;28;20470;-81
2022/09/13 10:36:41;;;;;;;1.97;1.87;;;30.60;42.90;;;;;;4959890;28;20432;-81
2022/09/13 10:39:24;;;;;;;1.50;1.50;;;30.70;42.80;;;;;;4959861;28;20471;-81
2022/09/13 10:42:01;;;;;;;1.90;1.80;;;30.70;42.80;;;;;;4957898;28;20467;-81
2022/09/13 10:44:46;;;;;;;1.90;1.77;;;30.50;42.90;;;;;;4964563;28;20561;-81
2022/09/13 10:47:24;;;;;;;2.30;1.67;;;30.70;42.90;;;;;;4958570;29;20453;-82
2022/09/13 10:49:58;;;;;;;1.90;1.80;;;30.80;42.60;;;;;;4959263;28;20486;-82
2022/09/13 10:52:37;;;;;;;1.33;1.33;;;30.80;42.40;;;;;;4959137;28;20486;-83
2022/09/13 10:55:28;;;;;;;1.60;1.50;;;30.80;42.20;;;;;;4957163;29;20429;-82
2022/09/13 10:58:26;;;;;;;1.70;1.60;;;31.00;42.30;;;;;;4959012;28;20434;-82
2022/09/13 11:01:16;;;;;;;1.80;1.70;;;31.00;42.20;;;;;;4917273;28;20549;-82
2022/09/13 11:04:23;;;;;;;2.00;1.90;;;30.90;42.00;;;;;;4966455;28;20454;-81
2022/09/13 11:07:00;;;;;;;1.67;1.63;;;30.80;42.50;;;;;;4965537;28;20446;-82
2022/09/13 11:09:35;;;;;;;1.60;1.50;;;30.90;42.20;;;;;;4953196;28;20512;-82
2022/09/13 11:12:09;;;;;;;1.83;1.50;;;30.90;42.00;;;;;;4945632;28;20452;-83
2022/09/13 11:14:45;;;;;;;1.37;1.37;;;30.90;42.10;;;;;;4974674;28;20449;-82
2022/09/13 11:17:26;;;;;;;1.70;1.60;;;30.70;42.50;;;;;;4939764;29;20447;-83
2022/09/13 11:20:22;;;;;;;1.97;1.77;;;30.90;42.40;;;;;;4958541;28;20506;-81
2022/09/13 11:23:13;;;;;;;1.80;1.70;;;31.00;42.20;;;;;;4961580;28;20421;-83
2022/09/13 11:26:05;;;;;;;1.83;1.63;;;31.00;42.00;;;;;;4962217;28;20475;-84
2022/09/13 11:29:08;;;;;;;1.30;1.30;;;31.00;42.00;;;;;;4968071;28;20454;-84
2022/09/13 11:31:51;;;;;;;3.93;1.50;;;31.10;42.00;;;;;;4973261;28;20473;-84
2022/09/13 11:34:44;;;;;;;1.90;1.80;;;31.10;41.90;;;;;;4967278;28;20485;-83
2022/09/13 11:37:38;;;;;;;4.00;1.90;;;31.30;42.10;;;;;;4952981;29;20538;-83
2022/09/13 11:40:30;;;;;;;6.27;2.07;;;31.40;41.80;;;;;;4959465;28;20470;-83
2022/09/13 11:43:16;;;;;;;6.20;2.67;;;31.30;42.00;;;;;;4958753;28;20957;-83
2022/09/13 11:45:45;;;;;;;7.83;2.43;;;31.10;42.70;;;;;;4962985;28;20480;-83
2022/09/13 11:48:40;;;;;;;7.33;2.27;;;31.00;43.10;;;;;;4962874;28;20442;-83
2022/09/13 11:51:11;;;;;;;5.43;1.90;;;31.10;43.20;;;;;;4958623;28;20458;-84
2022/09/13 11:54:08;;;;;;;5.33;2.47;;;31.00;42.90;;;;;;4940410;28;20452;-83
2022/09/13 11:56:36;;;;;;;3.50;1.83;;;30.80;43.10;;;;;;4937930;28;20448;-82
2022/09/13 11:59:11;;;;;;;14.73;2.10;;;30.70;43.50;;;;;;4940233;28;20472;-82
2022/09/13 12:01:44;;;;;;;4.30;2.07;;;30.80;43.30;;;;;;4941649;28;20468;-83
2022/09/13 12:04:15;;;;;;;4.80;1.90;;;31.00;43.10;;;;;;4954834;28;20483;-83
2022/09/13 12:06:43;;;;;;;3.47;1.70;;;31.10;42.80;;;;;;4958748;28;20479;-82
2022/09/13 12:09:16;;;;;;;2.07;1.87;;;31.20;42.70;;;;;;4955185;29;20442;-81
2022/09/13 12:11:45;;;;;;;4.00;1.87;;;31.30;42.50;;;;;;4954671;28;20451;-83
2022/09/13 12:14:15;;;;;;;1.63;1.40;;;31.40;42.60;;;;;;4955064;28;20432;-83
2022/09/13 12:16:44;;;;;;;2.90;1.60;;;31.40;42.40;;;;;;4949101;28;20609;-84
2022/09/13 12:19:19;;;;;;;2.93;1.70;;;31.50;42.20;;;;;;4972795;28;20461;-84
2022/09/13 12:21:47;;;;;;;6.73;1.90;;;31.50;42.20;;;;;;4953506;28;20449;-82
2022/09/13 12:24:18;;;;;;;4.43;1.57;;;31.60;42.30;;;;;;4954510;28;20456;-84
2022/09/13 12:26:50;;;;;;;2.60;1.90;;;31.60;41.90;;;;;;4955092;28;20557;-83
2022/09/13 12:29:19;;;;;;;4.43;1.53;;;31.70;41.90;;;;;;4955834;28;20467;-83
2022/09/13 12:31:47;;;;;;;3.23;1.87;;;31.70;41.80;;;;;;4955195;28;20462;-84
2022/09/13 12:34:24;;;;;;;4.20;1.80;;;31.60;41.90;;;;;;4974580;28;20488;-84
2022/09/13 12:37:10;;;;;;;2.03;1.30;;;31.60;41.70;;;;;;4969944;28;20453;-82
2022/09/13 12:40:05;;;;;;;3.03;1.30;;;31.70;40.60;;;;;;4950717;28;20478;-80
2022/09/13 12:43:01;;;;;;;1.13;1.00;;;31.70;40.20;;;;;;4953068;28;20430;-80
2022/09/13 12:45:53;;;;;;;2.93;0.90;;;31.40;39.40;;;;;;4952171;29;20482;-82
2022/09/13 12:48:40;;;;;;;1.67;0.90;;;31.30;39.50;;;;;;4956827;28;20470;-80
2022/09/13 12:51:15;;;;;;;2.83;1.23;;;31.00;39.40;;;;;;4949187;28;20518;-81
2022/09/13 12:54:06;;;;;;;4.30;1.10;;;31.10;39.70;;;;;;4956904;28;20462;-80
2022/09/13 12:56:50;;;;;;;3.33;1.13;;;31.00;39.40;;;;;;4956442;29;20953;-81
2022/09/13 12:59:39;;;;;;;2.60;1.10;;;31.00;39.50;;;;;;4961945;28;20485;-82
2022/09/13 13:02:24;;;;;;;1.80;1.00;;;31.10;39.00;;;;;;4959525;29;20459;-81
2022/09/13 13:04:54;;;;;;;2.00;1.00;;;31.00;38.70;;;;;;4962528;28;20451;-81
2022/09/13 13:07:22;;;;;;;2.60;1.27;;;30.80;38.70;;;;;;4958008;28;20455;-82
2022/09/13 13:09:52;;;;;;;1.87;1.03;;;30.70;38.90;;;;;;4959741;28;20479;-82
2022/09/13 13:12:30;;;;;;;1.60;1.03;;;30.70;39.10;;;;;;4961702;28;20439;-82
2022/09/13 13:14:59;;;;;;;3.83;1.33;;;30.80;38.50;;;;;;4961188;28;20446;-82
2022/09/13 13:17:45;;;;;;;4.40;1.00;;;30.90;38.00;;;;;;4959426;28;21028;-79
2022/09/13 13:20:48;;;;;;;2.60;1.00;;;31.00;37.70;;;;;;4943267;28;20478;-79
2022/09/13 13:23:22;;;;;;;1.10;1.00;;;31.10;37.20;;;;;;4961613;28;20518;-80
2022/09/13 13:26:06;;;;;;;3.30;1.30;;;31.20;37.00;;;;;;4960425;28;20481;-80
2022/09/13 13:29:05;;;;;;;4.87;1.30;;;31.10;36.80;;;;;;4961023;28;20451;-80
2022/09/13 13:31:35;;;;;;;4.23;0.93;;;31.00;36.70;;;;;;4958331;28;20459;-79
2022/09/13 13:34:24;;;;;;;2.97;0.80;;;31.00;36.50;;;;;;4963527;28;20455;-80
2022/09/13 13:36:53;;;;;;;3.63;1.10;;;30.90;36.80;;;;;;4958316;29;20431;-79
2022/09/13 13:39:36;;;;;;;4.40;1.10;;;30.80;36.70;;;;;;4970646;28;20479;-80
2022/09/13 13:42:11;;;;;;;3.50;1.20;;;30.70;36.60;;;;;;4985028;28;20438;-80
2022/09/13 13:45:19;;;;;;;3.93;0.97;;;30.70;36.50;;;;;;4959552;28;20449;-80
2022/09/13 13:48:13;;;;;;;3.13;1.10;;;30.70;36.50;;;;;;4956134;28;20457;-80
2022/09/13 13:51:13;;;;;;;3.80;1.23;;;30.70;36.50;;;;;;4960138;28;20470;-80
2022/09/13 13:53:42;;;;;;;1.20;0.87;;;30.70;36.00;;;;;;4958810;29;20454;-80
2022/09/13 13:56:18;;;;;;;1.63;0.80;;;30.70;35.90;;;;;;4963525;28;20442;-80
2022/09/13 13:58:49;;;;;;;1.73;1.00;;;30.70;35.90;;;;;;4968300;28;20551;-78
2022/09/13 14:01:21;;;;;;;2.17;1.10;;;30.70;36.00;;;;;;4960407;28;20513;-79
2022/09/13 14:04:05;;;;;;;1.23;0.80;;;30.70;36.10;;;;;;4965941;28;20487;-78
2022/09/13 14:06:34;;;;;;;1.77;1.07;;;30.60;36.00;;;;;;4956039;29;20473;-80
2022/09/13 14:09:06;;;;;;;1.70;0.90;;;30.60;36.20;;;;;;4974513;28;20465;-79
2022/09/13 14:11:43;;;;;;;4.10;1.20;;;30.70;36.00;;;;;;4969659;28;20480;-79